Time;durP1;ratioP1;P1;durP2;ratioP2;P2;SDS_P1;SDS_P2;PMS_P1;PMS_P2;Temp;Humidity;BMP_temperature;BMP_pressure;BME280_temperature;BME280_humidity;BME280_pressure;Samples;Min_cycle;Max_cycle;Signal;HPM_P1;HPM_P2
2021/09/30 03:33:08;;;;;;;6.20;3.80;;;10.10;93.50;;;;;;3956412;23;20069;-95
2021/09/30 04:37:19;;;;;;;6.63;4.13;;;10.30;92.70;;;;;;4491287;23;21139;-94
2021/09/30 04:43:44;;;;;;;5.28;4.22;;;10.40;92.70;;;;;;4910461;29;20048;-96
2021/09/30 04:52:42;;;;;;;7.93;5.07;;;10.40;92.20;;;;;;5135232;23;20127;-93
2021/09/30 04:55:17;;;;;;;8.57;4.78;;;10.40;92.20;;;;;;4940836;29;20046;-93
2021/09/30 04:58:38;;;;;;;8.20;4.90;;;10.40;92.20;;;;;;4939489;29;20020;-95
2021/09/30 05:01:49;;;;;;;6.60;4.40;;;10.40;92.00;;;;;;5261247;23;20086;-94
2021/09/30 05:27:20;;;;;;;6.40;4.97;;;10.70;90.90;;;;;;5042747;23;20123;-95
2021/09/30 05:36:45;;;;;;;;;;;;;;;;;;;;;
2021/09/30 06:16:33;;;;;;;5.65;3.38;;;12.00;83.90;;;;;;4955367;29;20566;-96
2021/09/30 06:19:04;;;;;;;4.80;3.53;;;12.10;84.60;;;;;;4935971;29;20035;-96
2021/09/30 06:22:13;;;;;;;4.40;3.72;;;12.30;84.30;;;;;;4934845;29;20035;-95
2021/09/30 06:27:43;;;;;;;4.63;3.03;;;12.40;83.40;;;;;;4864141;29;20083;-94
2021/09/30 06:30:31;;;;;;;;;;;;;;;;;;;;;
2021/09/30 07:29:05;;;;;;;4.72;3.40;;;13.20;76.10;;;;;;4949881;29;20063;-94
2021/09/30 07:31:34;;;;;;;4.93;3.20;;;13.10;76.30;;;;;;4938244;29;20023;-95
2021/09/30 07:34:55;;;;;;;;;;;;;;;;;;;;;
2021/09/30 07:44:03;;;;;;;4.32;2.63;;;13.30;76.20;;;;;;4893472;29;20062;-95
2021/09/30 07:54:06;;;;;;;;;;;;;;;;;;;;;
2021/09/30 08:00:39;;;;;;;;;;;;;;;;;;;;;
2021/09/30 08:03:29;;;;;;;6.85;2.97;;;13.60;73.20;;;;;;4856228;29;20068;-95
2021/09/30 08:05:57;;;;;;;4.30;3.10;;;13.60;73.50;;;;;;4870256;29;20032;-96
2021/09/30 08:08:34;;;;;;;4.03;2.80;;;13.60;73.70;;;;;;4898066;29;20043;-96
2021/09/30 08:11:00;;;;;;;3.15;2.30;;;13.70;73.30;;;;;;4899326;29;20037;-96
2021/09/30 08:13:30;;;;;;;3.70;2.92;;;13.80;73.50;;;;;;4894996;29;20040;-94
2021/09/30 08:16:22;;;;;;;3.50;2.47;;;13.90;72.90;;;;;;4894604;29;20076;-95
2021/09/30 08:18:48;;;;;;;4.03;2.83;;;14.00;72.30;;;;;;4895803;29;20040;-95
2021/09/30 08:21:15;;;;;;;4.93;2.90;;;14.00;71.90;;;;;;4946885;29;20050;-92
2021/09/30 08:23:44;;;;;;;4.70;3.63;;;14.00;71.40;;;;;;4931427;29;20032;-94
2021/09/30 08:26:18;;;;;;;4.75;3.85;;;14.00;70.70;;;;;;4919779;29;20178;-92
2021/09/30 08:28:49;;;;;;;3.97;3.58;;;13.90;70.10;;;;;;4899199;29;20449;-93
2021/09/30 08:31:19;;;;;;;6.55;3.50;;;13.90;70.40;;;;;;4914299;29;20061;-94
2021/09/30 08:33:48;;;;;;;3.97;3.28;;;13.80;69.70;;;;;;4892111;29;20485;-94
2021/09/30 08:36:33;;;;;;;3.58;2.90;;;13.80;70.10;;;;;;4902689;29;20068;-93
2021/09/30 08:39:51;;;;;;;7.82;3.50;;;13.80;69.80;;;;;;4914977;29;20031;-94
2021/09/30 08:42:54;;;;;;;;;;;;;;;;;;;;;
2021/09/30 08:45:31;;;;;;;5.40;3.30;;;14.00;69.50;;;;;;4917189;29;20064;-93
2021/09/30 08:48:50;;;;;;;;;;;;;;;;;;;;;
2021/09/30 08:51:23;;;;;;;4.07;3.10;;;14.10;68.60;;;;;;4884047;29;20064;-96
2021/09/30 08:54:19;;;;;;;3.85;2.75;;;14.20;69.00;;;;;;4913681;29;20028;-95
2021/09/30 08:56:58;;;;;;;3.95;3.10;;;14.20;68.00;;;;;;4882886;29;20102;-94
2021/09/30 09:06:37;;;;;;;3.63;3.05;;;14.30;67.80;;;;;;4890562;29;20047;-95
2021/09/30 09:09:50;;;;;;;3.83;2.80;;;14.40;67.20;;;;;;4924317;29;20035;-94
2021/09/30 09:12:20;;;;;;;2.83;2.58;;;14.40;66.80;;;;;;4868352;29;20018;-95
2021/09/30 09:22:19;;;;;;;3.00;2.67;;;14.40;66.90;;;;;;4902970;29;20186;-94
2021/09/30 09:25:39;;;;;;;2.40;2.20;;;14.50;66.10;;;;;;4896998;29;20041;-94
2021/09/30 09:28:35;;;;;;;;;;;14.50;66.50;;;;;;4890430;29;20056;-93
2021/09/30 09:32:05;;;;;;;2.60;2.38;;;14.50;64.70;;;;;;4899419;29;19918;-96
2021/09/30 09:34:36;;;;;;;5.28;2.55;;;14.60;66.40;;;;;;4907150;29;20065;-92
2021/09/30 09:37:52;;;;;;;2.60;2.40;;;14.70;66.90;;;;;;4917794;29;20043;-95
2021/09/30 09:41:29;;;;;;;;;;;;;;;;;;;;;
2021/09/30 09:48:12;;;;;;;;;;;;;;;;;;;;;
2021/09/30 09:51:04;;;;;;;4.00;3.22;;;14.90;64.10;;;;;;4917293;29;20068;-94
2021/09/30 09:56:53;;;;;;;5.82;2.97;;;14.80;64.20;;;;;;4894315;29;20044;-93
2021/09/30 09:59:32;;;;;;;4.50;3.05;;;14.80;63.80;;;;;;4901532;29;20437;-94
2021/09/30 10:02:01;;;;;;;2.60;2.20;;;14.80;63.70;;;;;;4923337;29;20108;-93
2021/09/30 10:04:37;;;;;;;3.05;2.28;;;14.70;64.30;;;;;;4887146;29;20036;-94
2021/09/30 10:10:57;;;;;;;2.13;1.92;;;14.80;64.10;;;;;;4929051;28;20046;-94
2021/09/30 10:14:01;;;;;;;3.15;2.30;;;14.90;64.50;;;;;;4908956;29;20099;-94
2021/09/30 10:16:54;;;;;;;2.88;1.90;;;15.00;64.10;;;;;;4907561;29;20035;-94
2021/09/30 14:29:05;;;;;;;;;;;;;;;;;;;;;
2021/09/30 15:50:12;;;;;;;2.00;1.80;;;14.90;51.60;;;;;;4821827;29;20096;-90
2021/09/30 16:48:04;;;;;;;;;;;;;;;;;;;;;
2021/09/30 17:01:33;;;;;;;2.03;1.70;;;11.10;64.50;;;;;;4848557;29;20481;-90
2021/09/30 17:04:33;;;;;;;2.05;1.20;;;11.00;64.60;;;;;;4787823;29;20526;-90
2021/09/30 17:07:36;;;;;;;1.92;1.50;;;10.90;64.80;;;;;;4746120;30;20061;-91
2021/09/30 17:10:36;;;;;;;2.33;1.33;;;10.90;65.50;;;;;;4714587;30;20041;-91
2021/09/30 17:17:14;;;;;;;;;;;;;;;;;;;;;
2021/09/30 17:20:31;;;;;;;1.45;1.30;;;10.70;65.90;;;;;;4728351;30;20542;-90
2021/09/30 17:24:04;;;;;;;;;;;;;;;;;;;;;
2021/09/30 17:27:13;;;;;;;2.60;1.75;;;10.70;69.10;;;;;;4582918;31;20135;-91
2021/09/30 17:36:51;;;;;;;1.97;1.50;;;10.70;67.60;;;;;;4613464;31;20481;-95
2021/09/30 17:39:19;;;;;;;2.10;1.48;;;10.80;69.40;;;;;;4611483;30;20051;-95
2021/09/30 17:42:06;;;;;;;2.72;1.90;;;10.70;69.10;;;;;;4681000;30;20145;-94
2021/09/30 17:47:25;;;;;;;3.00;2.38;;;10.70;69.50;;;;;;4800511;29;20042;-93
2021/09/30 17:49:52;;;;;;;2.67;2.17;;;10.70;69.90;;;;;;4791344;30;20042;-93
2021/09/30 17:52:18;;;;;;;2.33;1.92;;;10.70;69.90;;;;;;4789899;29;20047;-92
2021/09/30 17:54:45;;;;;;;2.05;1.70;;;10.70;70.50;;;;;;4790350;30;20088;-92
2021/09/30 17:57:11;;;;;;;3.10;1.98;;;10.70;70.40;;;;;;4775911;30;20092;-91
2021/09/30 17:59:37;;;;;;;5.53;2.13;;;10.60;71.00;;;;;;4776024;29;20038;-93
2021/09/30 18:02:05;;;;;;;4.20;2.58;;;10.60;71.50;;;;;;4872603;29;20041;-92
2021/09/30 18:04:31;;;;;;;3.47;1.92;;;10.60;71.60;;;;;;4869559;29;20041;-93
2021/09/30 18:06:57;;;;;;;4.07;2.40;;;10.60;72.00;;;;;;4871026;29;20029;-92
2021/09/30 18:09:24;;;;;;;2.58;1.65;;;10.60;72.00;;;;;;4867415;29;20036;-92
2021/09/30 18:11:57;;;;;;;2.85;2.10;;;10.60;72.00;;;;;;4883462;29;20408;-92
2021/09/30 18:14:22;;;;;;;4.97;3.00;;;10.50;72.10;;;;;;4882295;29;20483;-92
2021/09/30 18:16:48;;;;;;;4.00;2.22;;;10.50;72.70;;;;;;4901444;29;20033;-92
2021/09/30 18:19:16;;;;;;;3.17;2.38;;;10.50;73.00;;;;;;4907361;29;20017;-92
2021/09/30 18:21:44;;;;;;;2.63;1.90;;;10.50;73.20;;;;;;4890833;29;20040;-90
2021/09/30 18:24:19;;;;;;;2.47;1.98;;;10.50;73.50;;;;;;4891076;29;20013;-91
2021/09/30 18:26:47;;;;;;;3.03;1.98;;;10.50;74.00;;;;;;4896077;29;20037;-91
2021/09/30 18:29:12;;;;;;;2.80;2.00;;;10.50;74.00;;;;;;4886528;29;20033;-90
2021/09/30 18:31:39;;;;;;;2.80;1.80;;;10.50;74.30;;;;;;4885826;29;20090;-91
2021/09/30 18:34:07;;;;;;;3.28;1.95;;;10.40;74.70;;;;;;4885130;29;20036;-90
2021/09/30 18:36:33;;;;;;;2.38;1.98;;;10.40;75.00;;;;;;4893230;29;20053;-91
2021/09/30 18:38:59;;;;;;;3.50;2.58;;;10.40;75.20;;;;;;4902086;29;20033;-91
2021/09/30 18:41:25;;;;;;;4.10;2.05;;;10.40;75.10;;;;;;4901378;29;20632;-92
2021/09/30 18:43:53;;;;;;;2.92;2.25;;;10.40;75.40;;;;;;4902430;29;20037;-92
2021/09/30 18:46:21;;;;;;;2.92;2.55;;;10.40;75.40;;;;;;4901557;29;20028;-91
2021/09/30 18:48:48;;;;;;;4.18;1.95;;;10.40;75.60;;;;;;4900991;29;20029;-91
2021/09/30 18:51:13;;;;;;;3.25;1.88;;;10.40;75.90;;;;;;4901286;29;20044;-91
2021/09/30 18:53:39;;;;;;;2.90;2.42;;;10.30;76.20;;;;;;4901091;29;20029;-91
2021/09/30 18:56:05;;;;;;;2.33;1.70;;;10.30;76.30;;;;;;4900008;29;20033;-92
2021/09/30 18:58:31;;;;;;;2.92;2.63;;;10.30;76.50;;;;;;4901754;29;20043;-92
2021/09/30 19:00:57;;;;;;;2.55;2.20;;;10.30;76.40;;;;;;4900824;29;20507;-91
2021/09/30 19:03:24;;;;;;;2.97;1.80;;;10.30;76.70;;;;;;4900924;29;20463;-92
2021/09/30 19:05:51;;;;;;;2.47;1.90;;;10.30;76.80;;;;;;4901986;29;20028;-92
2021/09/30 19:08:17;;;;;;;3.03;1.60;;;10.30;76.80;;;;;;4885285;29;20043;-92
2021/09/30 19:10:43;;;;;;;1.98;1.63;;;10.30;77.00;;;;;;4885556;29;20057;-92
2021/09/30 19:13:09;;;;;;;2.78;1.90;;;10.20;77.10;;;;;;4885650;29;20025;-92
2021/09/30 19:15:35;;;;;;;3.03;1.33;;;10.20;77.20;;;;;;4900711;29;20083;-92
2021/09/30 19:18:03;;;;;;;2.63;1.77;;;10.10;77.50;;;;;;4900593;29;20379;-91
2021/09/30 19:20:29;;;;;;;1.92;1.65;;;10.10;77.70;;;;;;4900646;29;20040;-92
2021/09/30 19:22:58;;;;;;;2.08;1.65;;;10.00;78.00;;;;;;4900684;29;20029;-91
2021/09/30 19:25:27;;;;;;;2.28;1.40;;;10.00;78.50;;;;;;4900694;29;20029;-92
2021/09/30 19:27:55;;;;;;;3.28;2.17;;;9.90;78.70;;;;;;4901678;29;20388;-92
2021/09/30 19:30:21;;;;;;;2.30;1.85;;;9.90;79.50;;;;;;4900156;29;20071;-92
2021/09/30 19:32:48;;;;;;;4.28;1.88;;;9.90;79.50;;;;;;4900043;29;20036;-92
2021/09/30 19:35:15;;;;;;;5.18;1.88;;;9.90;79.40;;;;;;4912313;29;20029;-91
2021/09/30 19:37:40;;;;;;;2.63;1.83;;;9.90;79.50;;;;;;4919391;29;20053;-90
2021/09/30 19:40:13;;;;;;;3.58;1.92;;;9.90;79.60;;;;;;4898683;29;20035;-91
2021/09/30 19:42:40;;;;;;;2.33;1.55;;;10.00;79.40;;;;;;4901038;29;20048;-90
2021/09/30 19:45:06;;;;;;;3.45;2.25;;;10.00;80.10;;;;;;4904547;29;20098;-91
2021/09/30 19:47:32;;;;;;;2.50;1.80;;;10.00;79.70;;;;;;4901172;29;20048;-91
2021/09/30 19:49:58;;;;;;;2.38;1.83;;;10.00;79.50;;;;;;4901562;29;20032;-91
2021/09/30 19:52:23;;;;;;;2.75;1.95;;;10.00;79.50;;;;;;4921663;29;20020;-93
2021/09/30 19:54:49;;;;;;;4.22;2.92;;;10.00;79.60;;;;;;4917199;29;20028;-93
2021/09/30 19:57:15;;;;;;;3.15;2.05;;;10.10;79.70;;;;;;4919931;29;20012;-92
2021/09/30 19:59:42;;;;;;;4.95;2.60;;;10.10;79.50;;;;;;4923844;29;20017;-91
2021/09/30 20:02:08;;;;;;;3.03;2.13;;;10.10;79.90;;;;;;4920603;29;20052;-90
2021/09/30 20:04:33;;;;;;;3.15;2.30;;;10.10;80.00;;;;;;4923473;29;20013;-91
2021/09/30 20:06:59;;;;;;;5.05;2.47;;;10.10;80.00;;;;;;4912807;29;20032;-92
2021/09/30 20:09:25;;;;;;;2.85;2.28;;;10.10;80.00;;;;;;4917698;29;20028;-92
2021/09/30 20:11:51;;;;;;;3.50;2.40;;;10.10;79.90;;;;;;4920733;29;20040;-92
2021/09/30 20:14:16;;;;;;;2.95;1.77;;;10.20;80.20;;;;;;4916611;29;20036;-92
2021/09/30 20:16:42;;;;;;;3.03;2.03;;;10.20;80.50;;;;;;4913225;29;20085;-91
2021/09/30 20:19:08;;;;;;;1.80;1.65;;;10.20;80.30;;;;;;4913123;29;20061;-92
2021/09/30 20:21:34;;;;;;;2.90;2.58;;;10.10;80.40;;;;;;4908015;29;20369;-92
2021/09/30 20:23:59;;;;;;;2.63;1.98;;;10.10;80.40;;;;;;4890056;29;20540;-92
2021/09/30 20:26:25;;;;;;;5.30;2.40;;;10.10;80.70;;;;;;4864753;29;20040;-92
2021/09/30 20:28:53;;;;;;;2.17;1.75;;;10.10;80.90;;;;;;4865041;29;20029;-93
2021/09/30 20:31:20;;;;;;;2.33;2.03;;;10.10;81.00;;;;;;4864551;29;20124;-92
2021/09/30 20:33:51;;;;;;;2.55;1.52;;;10.00;81.10;;;;;;4865104;29;20049;-92
2021/09/30 20:36:20;;;;;;;2.83;2.22;;;10.00;81.10;;;;;;4876953;29;20113;-92
2021/09/30 20:38:48;;;;;;;1.52;1.40;;;10.00;81.30;;;;;;4861225;29;20038;-92
2021/09/30 20:41:13;;;;;;;4.88;2.53;;;10.00;81.60;;;;;;4845822;29;20038;-92
2021/09/30 20:43:39;;;;;;;2.97;1.98;;;9.90;81.60;;;;;;4861721;29;20380;-92
2021/09/30 20:46:05;;;;;;;2.47;2.08;;;9.90;81.90;;;;;;4861201;29;20026;-91
2021/09/30 20:48:31;;;;;;;4.43;2.17;;;9.90;82.20;;;;;;4861488;29;20036;-92
2021/09/30 20:50:57;;;;;;;2.38;1.88;;;9.90;82.40;;;;;;4861874;29;20065;-90
2021/09/30 20:53:25;;;;;;;3.70;2.33;;;9.90;82.50;;;;;;4861885;29;20029;-91
2021/09/30 20:55:51;;;;;;;2.78;1.63;;;9.90;82.60;;;;;;4861538;29;20036;-91
2021/09/30 20:58:17;;;;;;;2.80;2.03;;;9.90;82.60;;;;;;4846242;29;20117;-92
2021/09/30 21:00:43;;;;;;;2.28;1.83;;;9.90;82.80;;;;;;4861936;29;20445;-92
2021/09/30 21:03:09;;;;;;;3.20;2.25;;;9.90;83.30;;;;;;4861599;29;20125;-92
2021/09/30 21:05:35;;;;;;;3.80;2.10;;;9.90;83.50;;;;;;4846059;29;20029;-92
2021/09/30 21:08:04;;;;;;;2.22;1.50;;;9.90;84.00;;;;;;4847454;29;20030;-92
2021/09/30 21:10:30;;;;;;;3.35;2.10;;;9.90;83.50;;;;;;4861493;29;20029;-91
2021/09/30 21:12:56;;;;;;;3.33;2.22;;;9.90;83.40;;;;;;4846211;29;20029;-92
2021/09/30 21:15:22;;;;;;;3.30;2.05;;;9.90;83.70;;;;;;4861570;29;20128;-92
2021/09/30 21:17:47;;;;;;;2.95;1.92;;;9.90;83.60;;;;;;4846091;29;20037;-92
2021/09/30 21:20:14;;;;;;;2.83;1.83;;;9.90;84.00;;;;;;4860848;29;20041;-92
2021/09/30 21:22:40;;;;;;;3.00;1.90;;;9.90;83.90;;;;;;4861736;29;20537;-92
2021/09/30 21:25:07;;;;;;;1.85;1.65;;;9.80;83.90;;;;;;4861665;29;20033;-91
2021/09/30 21:27:33;;;;;;;2.15;1.80;;;9.80;83.80;;;;;;4861591;29;20090;-92
2021/09/30 21:29:59;;;;;;;3.13;1.80;;;9.70;84.00;;;;;;4861530;29;20033;-92
2021/09/30 21:32:25;;;;;;;3.53;1.80;;;9.60;84.10;;;;;;4861317;29;20040;-92
2021/09/30 21:34:50;;;;;;;2.53;1.60;;;9.60;84.40;;;;;;4849453;29;20049;-92
2021/09/30 21:37:16;;;;;;;3.33;2.13;;;9.50;84.70;;;;;;4877064;29;20040;-90
2021/09/30 21:39:42;;;;;;;2.95;1.67;;;9.40;84.80;;;;;;4885706;29;20018;-91
2021/09/30 21:42:08;;;;;;;3.20;1.85;;;9.40;85.20;;;;;;4884879;29;20050;-91
2021/09/30 21:44:35;;;;;;;2.65;1.38;;;9.30;85.40;;;;;;4884944;29;20013;-91
2021/09/30 21:47:03;;;;;;;2.35;2.08;;;9.20;85.60;;;;;;4882370;29;20053;-92
2021/09/30 21:49:29;;;;;;;4.88;1.92;;;9.20;85.80;;;;;;4880408;29;20062;-91
2021/09/30 21:51:55;;;;;;;3.65;1.98;;;9.10;86.20;;;;;;4878363;29;20037;-91
2021/09/30 21:54:21;;;;;;;3.25;2.15;;;9.00;86.40;;;;;;4878851;29;20029;-91
2021/09/30 21:56:46;;;;;;;6.60;2.92;;;9.00;86.70;;;;;;4877157;29;20092;-92
2021/09/30 21:59:13;;;;;;;5.32;2.38;;;8.90;86.90;;;;;;4880536;29;20017;-92
2021/09/30 22:01:40;;;;;;;5.13;2.00;;;8.90;87.10;;;;;;4878664;29;20058;-91
2021/09/30 22:04:06;;;;;;;4.22;2.22;;;8.80;87.20;;;;;;4875258;29;20026;-92
2021/09/30 22:06:34;;;;;;;5.32;2.92;;;8.80;87.30;;;;;;4877077;29;20055;-92
2021/09/30 22:09:01;;;;;;;6.28;2.70;;;8.70;87.50;;;;;;4877503;29;20037;-93
2021/09/30 22:11:26;;;;;;;7.05;3.63;;;8.70;87.80;;;;;;4877977;29;20123;-93
2021/09/30 22:13:53;;;;;;;5.85;3.08;;;8.60;88.00;;;;;;4868545;29;20034;-92
2021/09/30 22:16:20;;;;;;;14.77;5.45;;;8.60;88.10;;;;;;4865728;29;20034;-93
2021/09/30 22:18:46;;;;;;;18.95;8.23;;;8.50;88.20;;;;;;4863136;29;20086;-92
2021/09/30 22:21:13;;;;;;;14.30;7.75;;;8.50;88.50;;;;;;4861647;29;20042;-92
2021/09/30 22:23:39;;;;;;;17.13;8.32;;;8.40;88.70;;;;;;4864666;29;20037;-92
2021/09/30 22:26:05;;;;;;;12.25;6.55;;;8.30;88.80;;;;;;4861157;29;20061;-92
2021/09/30 22:28:32;;;;;;;11.63;6.05;;;8.30;89.00;;;;;;4871278;29;20030;-92
2021/09/30 22:30:58;;;;;;;13.45;7.07;;;8.30;89.10;;;;;;4877251;29;20085;-92
2021/09/30 22:33:25;;;;;;;10.35;6.95;;;8.20;89.20;;;;;;4878931;29;20025;-92
2021/09/30 22:35:52;;;;;;;10.45;5.32;;;8.20;89.40;;;;;;4878689;29;20041;-92
2021/09/30 22:38:20;;;;;;;12.52;5.47;;;8.10;89.60;;;;;;4896549;29;20037;-92
2021/09/30 22:40:46;;;;;;;9.50;5.43;;;8.10;90.20;;;;;;4893155;29;20041;-92
2021/09/30 22:43:12;;;;;;;15.25;5.55;;;8.00;90.00;;;;;;4882439;29;20036;-92
2021/09/30 22:45:38;;;;;;;9.13;4.75;;;8.00;90.10;;;;;;4883204;29;20037;-92
2021/09/30 22:48:04;;;;;;;6.93;3.88;;;7.90;90.20;;;;;;4883215;29;20033;-92
2021/09/30 22:50:30;;;;;;;6.80;3.72;;;7.80;90.30;;;;;;4882449;29;20029;-92
2021/09/30 22:52:56;;;;;;;6.07;3.58;;;7.80;90.30;;;;;;4882158;29;20033;-92
2021/09/30 22:55:24;;;;;;;10.20;3.42;;;7.80;90.50;;;;;;4882455;29;20029;-92
2021/09/30 22:57:50;;;;;;;5.80;3.28;;;7.80;90.50;;;;;;4883067;29;20133;-92
2021/09/30 23:00:16;;;;;;;6.78;3.92;;;7.70;90.60;;;;;;4882147;29;20041;-92
2021/09/30 23:02:42;;;;;;;7.47;3.58;;;7.70;90.70;;;;;;4882724;29;20465;-92
2021/09/30 23:05:08;;;;;;;9.63;3.65;;;7.70;90.60;;;;;;4882077;29;20037;-92
2021/09/30 23:07:35;;;;;;;6.90;4.30;;;7.60;90.80;;;;;;4882413;29;20029;-92
2021/09/30 23:10:01;;;;;;;5.88;3.05;;;7.60;90.80;;;;;;4882176;29;20029;-92
2021/09/30 23:12:27;;;;;;;4.20;3.15;;;7.60;91.00;;;;;;4881936;29;20066;-92
2021/09/30 23:14:52;;;;;;;6.97;3.97;;;7.50;91.00;;;;;;4890237;29;20033;-92
2021/09/30 23:17:18;;;;;;;6.97;3.33;;;7.50;91.20;;;;;;4905751;29;20036;-91
2021/09/30 23:19:44;;;;;;;5.75;3.20;;;7.50;91.20;;;;;;4887708;29;20041;-92
2021/09/30 23:22:11;;;;;;;4.82;3.13;;;7.40;91.30;;;;;;4904062;29;20032;-91
2021/09/30 23:24:36;;;;;;;6.07;3.80;;;7.40;91.30;;;;;;4901095;29;20037;-92
2021/09/30 23:27:04;;;;;;;7.18;3.33;;;7.40;91.40;;;;;;4895360;29;20089;-92
2021/09/30 23:29:31;;;;;;;6.28;2.80;;;7.40;91.50;;;;;;4892599;29;20049;-92
2021/09/30 23:31:57;;;;;;;6.60;3.13;;;7.40;91.60;;;;;;4889803;29;20033;-92
2021/09/30 23:34:23;;;;;;;4.60;2.95;;;7.40;91.60;;;;;;4884480;29;20033;-92
2021/09/30 23:36:51;;;;;;;6.03;3.50;;;7.30;91.60;;;;;;4881326;29;20049;-92
2021/09/30 23:39:17;;;;;;;6.50;2.95;;;7.30;91.80;;;;;;4881805;29;20040;-92
2021/09/30 23:41:44;;;;;;;9.48;4.38;;;7.30;92.10;;;;;;4882162;29;20139;-92
2021/09/30 23:44:09;;;;;;;8.23;3.70;;;7.30;93.20;;;;;;4882251;29;20045;-92
2021/09/30 23:46:35;;;;;;;8.18;4.15;;;7.40;93.70;;;;;;4881437;29;20033;-92
2021/09/30 23:49:01;;;;;;;7.30;3.53;;;7.50;93.80;;;;;;4881493;29;20029;-92
2021/09/30 23:51:27;;;;;;;4.68;3.42;;;7.60;93.80;;;;;;4881623;29;20037;-92
2021/09/30 23:53:53;;;;;;;8.52;5.20;;;7.60;93.80;;;;;;4881494;29;20036;-92
2021/09/30 23:56:22;;;;;;;8.93;4.40;;;7.70;94.20;;;;;;4881891;29;20029;-92
2021/09/30 23:58:48;;;;;;;13.23;4.35;;;7.80;94.50;;;;;;4881601;29;20029;-92
